Time;durP1;ratioP1;P1;durP2;ratioP2;P2;SDS_P1;SDS_P2;PMS_P1;PMS_P2;Temp;Humidity;BMP_temperature;BMP_pressure;BME280_temperature;BME280_humidity;BME280_pressure;Samples;Min_cycle;Max_cycle;Signal;HPM_P1;HPM_P2
2022/07/20 00:00:23;;;;;;;30.20;6.70;;;21.60;76.10;;;;;;4956689;28;20027;-51
2022/07/20 00:02:49;;;;;;;35.38;6.55;;;21.60;74.80;;;;;;4956336;28;20182;-56
2022/07/20 00:05:14;;;;;;;40.03;6.95;;;21.60;74.80;;;;;;4956103;28;20540;-57
2022/07/20 00:07:40;;;;;;;48.08;8.70;;;21.60;75.80;;;;;;4956220;28;20023;-59
2022/07/20 00:12:50;;;;;;;30.80;6.15;;;21.30;76.90;;;;;;4957646;29;20513;-55
2022/07/20 00:15:16;;;;;;;18.45;6.28;;;21.30;77.50;;;;;;4956193;29;20027;-58
2022/07/20 00:17:42;;;;;;;31.83;6.68;;;21.20;77.50;;;;;;4956359;28;20030;-58
2022/07/20 00:20:09;;;;;;;27.15;6.10;;;21.20;78.30;;;;;;4956325;28;20028;-58
2022/07/20 00:22:35;;;;;;;18.65;5.78;;;21.20;78.10;;;;;;4957266;28;20039;-57
2022/07/20 00:25:02;;;;;;;32.55;5.93;;;21.20;78.80;;;;;;4957128;28;20041;-58
2022/07/20 00:27:27;;;;;;;24.85;4.60;;;21.10;78.80;;;;;;4957070;28;20078;-56
2022/07/20 00:29:53;;;;;;;16.25;4.15;;;21.10;79.60;;;;;;4955798;28;20419;-58
2022/07/20 00:32:18;;;;;;;13.05;3.95;;;21.10;79.70;;;;;;4972200;28;20023;-58
2022/07/20 00:34:44;;;;;;;14.60;4.18;;;21.10;80.30;;;;;;4955982;28;20106;-58
2022/07/20 00:37:10;;;;;;;24.55;5.20;;;21.10;79.50;;;;;;4956739;28;20043;-57
2022/07/20 00:39:35;;;;;;;24.45;5.50;;;21.10;80.30;;;;;;4957180;28;20059;-55
2022/07/20 00:42:01;;;;;;;32.38;7.35;;;21.00;81.40;;;;;;4955768;28;20082;-59
2022/07/20 00:44:27;;;;;;;37.50;7.30;;;21.00;80.70;;;;;;4971725;28;20027;-57
2022/07/20 00:46:55;;;;;;;47.25;10.02;;;20.90;81.00;;;;;;4971948;28;20061;-58
2022/07/20 00:49:20;;;;;;;18.40;5.55;;;20.90;80.80;;;;;;4955635;28;20034;-58
2022/07/20 00:51:46;;;;;;;19.35;5.55;;;20.80;81.40;;;;;;4955699;28;20031;-58
2022/07/20 00:54:12;;;;;;;27.38;7.03;;;20.80;81.70;;;;;;4955824;28;20023;-58
2022/07/20 00:56:38;;;;;;;22.10;4.78;;;20.60;83.20;;;;;;4955714;28;20030;-57
2022/07/20 00:59:07;;;;;;;16.67;5.78;;;20.50;83.90;;;;;;4956531;28;20050;-57
2022/07/20 01:01:33;;;;;;;42.20;8.07;;;20.50;84.10;;;;;;4956778;28;20023;-58
2022/07/20 01:03:59;;;;;;;53.25;9.70;;;20.50;84.30;;;;;;4956488;28;20023;-57
2022/07/20 01:06:25;;;;;;;42.97;8.27;;;20.50;84.50;;;;;;4956747;29;20049;-57
2022/07/20 01:08:51;;;;;;;52.28;9.77;;;20.40;85.10;;;;;;4956397;28;20024;-59
2022/07/20 01:11:17;;;;;;;30.70;7.93;;;20.40;85.30;;;;;;4955771;28;20030;-58
2022/07/20 01:13:43;;;;;;;26.02;5.05;;;20.30;85.60;;;;;;4956269;28;20092;-58
2022/07/20 01:16:09;;;;;;;11.95;4.10;;;20.20;86.80;;;;;;4971407;28;20110;-53
2022/07/20 01:18:35;;;;;;;14.90;3.50;;;20.20;87.70;;;;;;4954349;28;20118;-59
2022/07/20 01:21:03;;;;;;;13.65;4.13;;;20.20;87.80;;;;;;4954795;28;20031;-57
2022/07/20 01:23:29;;;;;;;11.27;3.75;;;20.10;88.40;;;;;;4971658;28;20027;-54
2022/07/20 01:25:56;;;;;;;12.18;3.63;;;20.00;89.40;;;;;;4956369;28;20372;-57
2022/07/20 01:28:22;;;;;;;10.30;4.05;;;19.90;90.30;;;;;;4954664;28;20062;-56
2022/07/20 01:30:47;;;;;;;12.35;3.60;;;19.90;90.60;;;;;;4955884;28;20082;-58
2022/07/20 01:33:13;;;;;;;16.83;4.00;;;19.90;91.00;;;;;;4970789;28;20447;-58
2022/07/20 01:35:39;;;;;;;10.63;4.03;;;19.90;91.50;;;;;;4954754;28;20027;-58
2022/07/20 01:38:04;;;;;;;11.52;4.13;;;19.90;91.60;;;;;;4956182;28;20027;-58
2022/07/20 01:40:30;;;;;;;9.82;3.83;;;19.90;91.80;;;;;;4956356;28;20395;-59
2022/07/20 01:42:56;;;;;;;12.88;3.90;;;19.80;92.40;;;;;;4955871;28;20039;-54
2022/07/20 01:45:22;;;;;;;9.32;3.35;;;19.80;93.00;;;;;;4955706;28;20038;-57
2022/07/20 01:47:47;;;;;;;10.85;3.63;;;19.80;93.40;;;;;;4954466;28;20030;-58
2022/07/20 01:50:13;;;;;;;12.43;5.05;;;19.70;93.70;;;;;;4955262;28;20023;-59
2022/07/20 01:52:39;;;;;;;8.50;3.60;;;19.80;93.80;;;;;;4954601;29;20036;-58
2022/07/20 01:55:05;;;;;;;10.52;3.45;;;19.80;93.80;;;;;;4955594;29;20155;-59
2022/07/20 01:57:31;;;;;;;13.50;3.90;;;19.70;94.10;;;;;;4954336;28;20034;-59
2022/07/20 01:59:57;;;;;;;9.43;3.70;;;19.70;94.20;;;;;;4955810;28;20035;-54
2022/07/20 02:02:22;;;;;;;14.43;3.90;;;19.70;94.60;;;;;;4954576;29;20034;-58
2022/07/20 02:04:48;;;;;;;8.95;3.17;;;19.50;95.10;;;;;;4954600;28;20102;-59
2022/07/20 02:07:14;;;;;;;11.25;4.05;;;19.50;95.50;;;;;;4954567;28;20031;-55
2022/07/20 02:09:39;;;;;;;8.38;3.67;;;19.40;95.80;;;;;;4954189;28;20113;-58
2022/07/20 02:12:05;;;;;;;13.32;4.20;;;19.30;96.40;;;;;;4954189;29;20058;-57
2022/07/20 02:14:31;;;;;;;12.50;3.83;;;19.20;96.80;;;;;;4955281;29;20023;-58
2022/07/20 02:16:56;;;;;;;8.75;3.88;;;19.20;97.50;;;;;;4955381;28;20028;-58
2022/07/20 02:19:22;;;;;;;7.18;3.47;;;19.10;98.20;;;;;;4955174;29;20070;-56
2022/07/20 02:21:48;;;;;;;9.35;4.50;;;19.10;99.30;;;;;;4953941;28;20079;-58
2022/07/20 02:24:13;;;;;;;9.65;3.92;;;19.00;99.90;;;;;;4955538;28;20055;-56
2022/07/20 02:26:39;;;;;;;11.30;4.00;;;19.00;99.90;;;;;;4954352;28;20091;-53
2022/07/20 02:29:04;;;;;;;6.15;3.83;;;19.00;99.90;;;;;;4955533;28;20027;-56
2022/07/20 02:31:30;;;;;;;7.80;4.22;;;19.00;99.90;;;;;;4958292;28;20023;-54
2022/07/20 02:33:56;;;;;;;9.38;3.60;;;19.00;99.90;;;;;;4974004;28;20027;-53
2022/07/20 02:36:21;;;;;;;13.63;4.20;;;19.10;99.90;;;;;;4958344;29;20030;-57
2022/07/20 02:38:47;;;;;;;13.95;3.85;;;19.10;99.90;;;;;;4959441;29;20027;-57
2022/07/20 02:41:13;;;;;;;8.13;3.63;;;19.10;99.90;;;;;;4958981;28;20026;-58
2022/07/20 02:43:39;;;;;;;6.95;3.28;;;19.00;99.90;;;;;;4957809;28;20023;-56
2022/07/20 02:46:05;;;;;;;15.68;4.10;;;19.00;99.90;;;;;;4957758;28;20398;-57
2022/07/20 02:48:31;;;;;;;9.98;3.70;;;18.90;99.90;;;;;;4958148;28;20409;-59
2022/07/20 02:50:57;;;;;;;7.55;3.25;;;18.80;99.90;;;;;;4959237;28;20034;-56
2022/07/20 02:53:23;;;;;;;4.90;3.53;;;18.70;99.90;;;;;;4959059;28;20039;-57
2022/07/20 02:55:48;;;;;;;6.25;3.75;;;18.60;99.90;;;;;;4958758;28;20030;-58
2022/07/20 02:58:14;;;;;;;8.63;3.80;;;18.60;99.90;;;;;;4957822;28;20039;-59
2022/07/20 03:00:41;;;;;;;9.25;4.45;;;18.50;99.90;;;;;;4958886;28;20360;-59
2022/07/20 03:03:07;;;;;;;7.65;4.10;;;18.40;99.90;;;;;;4957456;28;20027;-55
2022/07/20 03:05:34;;;;;;;9.55;4.20;;;18.50;99.90;;;;;;4958877;28;20027;-58
2022/07/20 03:08:00;;;;;;;14.40;4.20;;;18.50;99.90;;;;;;4957349;28;20045;-58
2022/07/20 03:10:26;;;;;;;4.47;3.17;;;18.40;99.90;;;;;;4957251;28;20389;-53
2022/07/20 03:12:52;;;;;;;10.15;5.07;;;18.30;99.90;;;;;;4957180;28;20023;-55
2022/07/20 03:15:18;;;;;;;8.57;4.30;;;18.30;99.90;;;;;;4957785;28;20027;-52
2022/07/20 03:17:46;;;;;;;9.35;4.10;;;18.20;99.90;;;;;;4957236;28;20023;-59
2022/07/20 03:20:23;;;;;;;8.10;3.90;;;18.20;99.90;;;;;;4958668;28;20110;-59
2022/07/20 03:22:49;;;;;;;6.53;3.63;;;18.20;99.90;;;;;;4958210;28;20030;-59
2022/07/20 03:25:15;;;;;;;5.13;3.00;;;18.20;99.90;;;;;;4958950;29;20039;-59
2022/07/20 03:27:40;;;;;;;8.02;3.97;;;18.10;99.90;;;;;;4957040;28;20402;-59
2022/07/20 03:30:07;;;;;;;7.40;3.50;;;18.10;99.90;;;;;;4972987;28;20031;-58
2022/07/20 03:32:34;;;;;;;8.13;3.72;;;18.00;99.90;;;;;;4956763;29;20556;-58
2022/07/20 03:34:59;;;;;;;10.80;4.28;;;17.90;99.90;;;;;;4958089;28;20020;-59
2022/07/20 03:37:25;;;;;;;12.38;3.38;;;17.90;99.90;;;;;;4972949;28;20027;-59
2022/07/20 03:39:51;;;;;;;6.60;3.95;;;17.90;99.90;;;;;;4958108;28;20078;-58
2022/07/20 03:42:17;;;;;;;7.43;3.92;;;17.80;99.90;;;;;;4956084;28;20027;-59
2022/07/20 03:44:43;;;;;;;9.85;3.95;;;17.90;99.90;;;;;;4958117;28;20035;-58
2022/07/20 03:47:08;;;;;;;11.27;3.88;;;17.90;99.90;;;;;;4957950;28;20427;-55
2022/07/20 03:49:34;;;;;;;8.65;3.80;;;17.80;99.90;;;;;;4956653;28;20033;-58
2022/07/20 03:52:00;;;;;;;12.60;4.18;;;17.80;99.90;;;;;;4972622;28;20066;-55
2022/07/20 03:54:26;;;;;;;11.77;3.80;;;17.80;99.90;;;;;;4956666;28;20038;-57
2022/07/20 03:56:51;;;;;;;9.70;3.63;;;17.80;99.90;;;;;;4973676;28;20023;-55
2022/07/20 03:59:17;;;;;;;11.23;4.20;;;17.80;99.90;;;;;;4973228;28;20573;-58
2022/07/20 04:01:42;;;;;;;5.30;3.40;;;17.80;99.90;;;;;;4956361;28;20034;-53
2022/07/20 04:04:08;;;;;;;13.73;4.07;;;17.90;99.90;;;;;;4956373;28;20027;-57
2022/07/20 04:06:34;;;;;;;10.98;4.07;;;17.90;99.90;;;;;;4957868;28;20110;-54
2022/07/20 04:09:00;;;;;;;10.25;3.92;;;18.00;99.90;;;;;;4957425;28;20097;-55
2022/07/20 04:11:26;;;;;;;6.50;4.05;;;18.00;99.90;;;;;;4956507;28;20483;-54
2022/07/20 04:13:52;;;;;;;11.25;3.92;;;18.20;99.90;;;;;;4956267;28;20023;-55
2022/07/20 04:16:18;;;;;;;15.05;6.75;;;18.40;99.90;;;;;;4956275;28;20027;-55
2022/07/20 04:18:43;;;;;;;9.93;4.70;;;18.60;99.90;;;;;;4957283;28;20019;-52
2022/07/20 04:21:09;;;;;;;10.25;4.47;;;18.80;99.90;;;;;;4956112;28;20030;-56
2022/07/20 04:23:34;;;;;;;7.97;3.92;;;19.00;99.90;;;;;;4957257;28;20090;-55
2022/07/20 04:26:00;;;;;;;9.88;4.10;;;19.20;99.90;;;;;;4972436;28;20065;-53
2022/07/20 04:28:26;;;;;;;12.82;4.32;;;19.30;99.90;;;;;;4957121;28;20090;-51
2022/07/20 04:30:52;;;;;;;9.60;3.60;;;19.50;99.90;;;;;;4955913;28;20035;-54
2022/07/20 04:33:18;;;;;;;5.70;3.97;;;19.70;99.90;;;;;;4957351;28;20038;-57
2022/07/20 04:35:45;;;;;;;7.10;3.75;;;20.10;99.90;;;;;;4957348;29;20023;-55
2022/07/20 04:38:13;;;;;;;8.02;3.20;;;20.50;99.90;;;;;;4956395;28;20029;-53
2022/07/20 04:40:39;;;;;;;8.38;3.47;;;20.80;99.90;;;;;;4956967;28;20042;-54
2022/07/20 04:43:05;;;;;;;9.45;3.30;;;21.30;99.90;;;;;;4956247;28;20027;-54
2022/07/20 04:45:31;;;;;;;7.57;3.30;;;21.70;99.90;;;;;;4956971;28;20398;-52
2022/07/20 04:47:56;;;;;;;14.23;4.82;;;21.90;99.90;;;;;;4956854;28;20023;-53
2022/07/20 04:50:22;;;;;;;6.38;3.83;;;22.20;99.90;;;;;;4956770;28;20038;-57
2022/07/20 04:52:48;;;;;;;8.27;4.10;;;22.50;99.90;;;;;;4956456;28;20031;-56
2022/07/20 04:55:13;;;;;;;8.23;4.50;;;22.80;99.90;;;;;;4956842;28;20149;-56
2022/07/20 04:57:39;;;;;;;6.55;4.43;;;23.20;99.90;;;;;;4956611;28;20526;-59
2022/07/20 05:00:06;;;;;;;9.73;4.57;;;23.50;99.90;;;;;;4971737;28;20118;-59
2022/07/20 05:02:31;;;;;;;8.73;4.72;;;23.90;99.90;;;;;;4956860;28;20069;-55
2022/07/20 05:04:57;;;;;;;7.38;4.18;;;24.20;99.80;;;;;;4955511;29;20113;-59
2022/07/20 05:07:23;;;;;;;16.80;4.85;;;24.50;98.60;;;;;;4955286;28;20113;-57
2022/07/20 05:09:49;;;;;;;7.50;4.63;;;24.80;97.50;;;;;;4955372;28;20071;-59
2022/07/20 05:12:14;;;;;;;13.00;5.25;;;25.10;96.80;;;;;;4955063;28;20423;-59
2022/07/20 05:14:40;;;;;;;11.38;4.78;;;25.40;96.00;;;;;;4955209;28;20031;-58
2022/07/20 05:17:06;;;;;;;4.90;4.07;;;25.70;95.30;;;;;;4956168;28;20087;-59
2022/07/20 05:19:31;;;;;;;8.65;4.05;;;25.90;94.70;;;;;;4955008;28;20054;-59
2022/07/20 05:21:57;;;;;;;7.68;4.10;;;25.90;93.90;;;;;;4956157;28;20070;-59
2022/07/20 05:24:23;;;;;;;7.82;4.70;;;26.20;93.30;;;;;;4956430;28;20058;-56
2022/07/20 05:26:49;;;;;;;10.20;4.38;;;26.60;92.80;;;;;;4971090;28;20031;-59
2022/07/20 05:29:15;;;;;;;8.27;3.90;;;26.70;92.00;;;;;;4954884;28;20024;-59
2022/07/20 05:31:40;;;;;;;11.88;4.32;;;26.80;92.20;;;;;;4954709;28;20027;-58
2022/07/20 05:34:06;;;;;;;6.80;3.90;;;26.80;91.80;;;;;;4954936;28;20123;-60
2022/07/20 05:36:31;;;;;;;11.50;4.32;;;27.10;91.10;;;;;;4954742;29;20031;-60
2022/07/20 05:38:57;;;;;;;9.93;4.53;;;27.40;90.90;;;;;;4954669;28;20487;-59
2022/07/20 05:41:23;;;;;;;8.48;4.47;;;27.70;89.90;;;;;;4954745;28;20138;-60
2022/07/20 05:43:48;;;;;;;5.90;3.95;;;28.10;90.00;;;;;;4955880;29;20575;-62
2022/07/20 05:46:14;;;;;;;7.13;3.95;;;28.70;88.80;;;;;;4954940;28;20035;-61
2022/07/20 05:48:39;;;;;;;4.80;3.40;;;28.90;87.90;;;;;;4955815;28;20027;-62
2022/07/20 05:51:05;;;;;;;7.85;4.40;;;29.30;85.60;;;;;;4954431;28;20178;-62
2022/07/20 05:53:31;;;;;;;11.57;4.05;;;29.80;84.60;;;;;;4955623;28;20082;-63
2022/07/20 05:55:56;;;;;;;9.60;4.50;;;30.30;82.20;;;;;;4955848;29;20166;-63
2022/07/20 05:58:22;;;;;;;7.65;4.80;;;30.80;79.70;;;;;;4954461;29;20023;-63
2022/07/20 06:00:48;;;;;;;9.50;4.38;;;30.90;78.00;;;;;;4955684;28;20093;-63
2022/07/20 06:03:13;;;;;;;6.93;4.50;;;31.40;77.00;;;;;;4953958;28;20035;-63
2022/07/20 06:05:39;;;;;;;7.53;3.20;;;31.90;75.50;;;;;;4955472;28;20035;-63
2022/07/20 06:08:05;;;;;;;7.57;4.28;;;32.30;74.70;;;;;;4954217;28;20054;-63
2022/07/20 06:10:33;;;;;;;14.98;4.82;;;32.80;72.40;;;;;;4970126;28;20035;-63
2022/07/20 06:13:00;;;;;;;7.90;3.92;;;33.20;70.30;;;;;;4954141;29;20486;-63
2022/07/20 06:15:25;;;;;;;6.28;4.00;;;33.50;69.10;;;;;;4954330;29;20024;-63
2022/07/20 06:17:53;;;;;;;8.88;3.97;;;34.00;68.60;;;;;;4955433;28;20107;-63
2022/07/20 06:20:19;;;;;;;4.18;3.40;;;34.30;66.50;;;;;;4954957;28;20431;-62
2022/07/20 06:22:45;;;;;;;5.15;3.80;;;34.10;67.60;;;;;;4954062;28;20027;-63
2022/07/20 06:25:13;;;;;;;8.13;3.70;;;34.50;66.80;;;;;;4955720;28;20038;-63
2022/07/20 06:27:39;;;;;;;11.30;3.85;;;34.80;65.00;;;;;;4970612;28;20058;-62
2022/07/20 06:30:06;;;;;;;8.52;4.43;;;35.00;64.60;;;;;;4954405;28;20055;-63
2022/07/20 06:32:32;;;;;;;10.35;4.18;;;35.10;64.50;;;;;;4955739;28;20023;-63
2022/07/20 06:34:57;;;;;;;7.57;3.70;;;35.50;62.90;;;;;;4955430;28;20030;-63
2022/07/20 06:37:23;;;;;;;7.85;3.47;;;36.00;62.40;;;;;;4954598;28;20023;-63
2022/07/20 06:39:49;;;;;;;5.95;3.83;;;36.30;61.30;;;;;;4954730;28;20019;-61
2022/07/20 06:42:16;;;;;;;10.40;3.92;;;36.80;58.60;;;;;;4970793;28;20023;-63
2022/07/20 06:44:43;;;;;;;7.40;4.65;;;37.50;57.70;;;;;;4956382;28;20035;-63
2022/07/20 06:47:09;;;;;;;7.22;3.88;;;38.10;56.50;;;;;;4955623;28;20027;-63
2022/07/20 06:49:34;;;;;;;6.50;3.60;;;38.70;55.50;;;;;;4955739;28;20035;-63
2022/07/20 06:52:00;;;;;;;5.93;3.42;;;39.20;54.60;;;;;;4954127;28;20023;-63
2022/07/20 06:54:26;;;;;;;9.77;3.65;;;39.60;54.60;;;;;;4955210;28;20449;-63
2022/07/20 06:56:52;;;;;;;13.23;3.72;;;39.90;52.90;;;;;;4955565;28;20102;-63
2022/07/20 06:59:17;;;;;;;9.10;4.05;;;40.10;52.30;;;;;;4955063;28;20023;-63
2022/07/20 07:01:43;;;;;;;6.63;3.58;;;39.90;53.10;;;;;;4955270;28;20110;-61
2022/07/20 07:04:09;;;;;;;11.20;3.90;;;40.30;52.40;;;;;;4955279;29;20078;-63
2022/07/20 07:06:34;;;;;;;5.85;3.97;;;40.30;50.30;;;;;;4954211;28;20082;-63
2022/07/20 07:09:00;;;;;;;5.80;3.47;;;40.50;51.50;;;;;;4954754;28;20141;-63
2022/07/20 07:11:26;;;;;;;8.43;3.20;;;41.20;50.20;;;;;;4955287;28;20506;-63
2022/07/20 07:13:52;;;;;;;8.73;3.70;;;41.50;49.20;;;;;;4954897;28;20051;-62
2022/07/20 07:16:18;;;;;;;6.38;3.60;;;42.20;48.80;;;;;;4958147;28;20475;-62
2022/07/20 07:18:43;;;;;;;12.27;3.75;;;42.70;48.50;;;;;;4973505;28;20478;-62
2022/07/20 07:21:09;;;;;;;9.23;3.78;;;43.40;48.20;;;;;;4958537;28;20375;-62
2022/07/20 07:23:35;;;;;;;5.10;2.70;;;43.70;44.60;;;;;;4957130;28;20027;-63
2022/07/20 07:26:01;;;;;;;7.50;3.40;;;42.50;44.60;;;;;;4974487;28;20455;-63
2022/07/20 07:28:27;;;;;;;5.90;3.15;;;41.40;44.00;;;;;;4957731;28;20054;-62
2022/07/20 07:30:52;;;;;;;6.00;2.70;;;40.10;45.80;;;;;;4958818;28;20116;-62
2022/07/20 07:33:24;;;;;;;10.63;3.13;;;39.80;45.80;;;;;;4958909;28;20024;-62
2022/07/20 07:35:51;;;;;;;5.88;2.97;;;39.40;46.50;;;;;;4959621;28;20066;-62
2022/07/20 07:38:16;;;;;;;5.80;2.80;;;39.10;46.60;;;;;;4959569;28;20023;-62
2022/07/20 07:40:42;;;;;;;5.20;2.90;;;38.30;47.00;;;;;;4975295;28;20534;-62
2022/07/20 07:43:08;;;;;;;3.42;2.80;;;38.70;47.40;;;;;;4958934;28;20027;-61
2022/07/20 07:45:33;;;;;;;4.28;2.80;;;38.70;47.80;;;;;;4959830;29;20027;-63
2022/07/20 07:47:59;;;;;;;6.30;2.92;;;39.40;46.50;;;;;;4974204;28;20122;-60
2022/07/20 07:50:24;;;;;;;5.78;3.17;;;40.00;47.00;;;;;;4958531;28;20106;-62
2022/07/20 07:52:50;;;;;;;7.25;3.40;;;41.30;45.60;;;;;;4957921;28;20031;-61
2022/07/20 07:55:16;;;;;;;4.00;2.50;;;41.60;44.50;;;;;;4973491;28;20027;-62
2022/07/20 07:57:42;;;;;;;5.95;2.80;;;41.10;45.10;;;;;;4957128;28;20557;-63
2022/07/20 08:00:08;;;;;;;4.60;2.65;;;41.50;45.20;;;;;;4958353;28;20090;-62
2022/07/20 08:02:34;;;;;;;8.23;2.80;;;41.40;46.00;;;;;;4958118;28;20106;-60
2022/07/20 08:05:00;;;;;;;7.00;2.97;;;41.70;44.30;;;;;;4956385;28;20038;-59
2022/07/20 08:07:26;;;;;;;6.28;3.58;;;41.60;45.50;;;;;;4957544;29;20028;-59
2022/07/20 08:09:52;;;;;;;5.63;2.80;;;43.00;44.10;;;;;;4957594;28;20027;-61
2022/07/20 08:12:18;;;;;;;6.38;3.15;;;43.60;43.90;;;;;;4957388;28;20038;-61
2022/07/20 08:14:43;;;;;;;3.97;2.60;;;43.60;43.20;;;;;;4957308;28;20027;-63
2022/07/20 08:17:09;;;;;;;4.95;2.83;;;43.20;44.00;;;;;;4957653;28;20074;-62
2022/07/20 08:19:35;;;;;;;6.50;3.10;;;44.00;42.60;;;;;;4957527;28;20034;-63
2022/07/20 08:22:00;;;;;;;5.78;3.35;;;43.60;43.40;;;;;;4957255;28;20062;-62
2022/07/20 08:24:26;;;;;;;6.18;3.30;;;42.80;43.40;;;;;;4956393;28;20038;-61
2022/07/20 08:26:51;;;;;;;3.58;3.05;;;43.20;44.00;;;;;;4955396;28;20019;-63
2022/07/20 08:29:18;;;;;;;6.03;2.97;;;44.40;43.70;;;;;;4963258;28;20030;-61
2022/07/20 08:31:43;;;;;;;4.75;2.83;;;44.60;42.00;;;;;;4957972;28;20028;-61
2022/07/20 08:34:09;;;;;;;6.75;2.95;;;44.10;42.40;;;;;;4956620;28;20037;-60
2022/07/20 08:36:35;;;;;;;8.20;3.40;;;43.70;42.40;;;;;;4971861;28;20019;-60
2022/07/20 08:39:01;;;;;;;5.18;3.15;;;43.80;42.90;;;;;;4972315;28;20023;-60
2022/07/20 08:41:27;;;;;;;9.57;3.55;;;43.30;42.70;;;;;;4972073;28;20033;-55
2022/07/20 08:43:53;;;;;;;3.28;2.92;;;43.40;43.60;;;;;;4956491;28;20082;-60
2022/07/20 08:46:21;;;;;;;9.93;3.55;;;44.00;42.50;;;;;;4956954;28;20039;-56
2022/07/20 08:48:49;;;;;;;5.50;3.13;;;45.30;42.00;;;;;;4955616;28;20086;-59
2022/07/20 08:51:15;;;;;;;4.88;2.97;;;46.00;41.70;;;;;;4956755;28;20494;-53
2022/07/20 08:53:41;;;;;;;7.20;3.92;;;46.40;41.20;;;;;;4957372;28;20027;-59
2022/07/20 08:56:06;;;;;;;5.55;3.72;;;47.00;40.80;;;;;;4956895;29;20027;-60
2022/07/20 08:58:32;;;;;;;9.38;3.53;;;46.70;40.40;;;;;;4955409;28;20070;-61
2022/07/20 09:00:58;;;;;;;5.18;3.80;;;47.40;41.00;;;;;;4956765;28;20079;-61
2022/07/20 09:03:23;;;;;;;8.20;3.50;;;48.30;39.30;;;;;;4957773;29;20023;-58
2022/07/20 09:06:03;;;;;;;5.40;3.83;;;47.90;39.50;;;;;;4958460;28;20035;-60
2022/07/20 09:08:29;;;;;;;8.30;3.53;;;48.30;40.00;;;;;;4975401;28;20019;-56
2022/07/20 09:10:58;;;;;;;9.68;3.40;;;48.70;38.90;;;;;;4961213;28;20031;-55
2022/07/20 09:13:35;;;;;;;4.78;3.28;;;48.90;39.60;;;;;;4961513;28;20058;-63
2022/07/20 09:16:02;;;;;;;4.78;3.45;;;49.50;38.60;;;;;;4977463;28;20023;-60
2022/07/20 09:18:34;;;;;;;5.65;3.92;;;50.30;37.40;;;;;;4958626;28;20065;-60
2022/07/20 09:21:07;;;;;;;7.78;3.65;;;51.20;37.90;;;;;;4959338;28;20019;-58
2022/07/20 09:23:52;;;;;;;8.02;3.50;;;51.60;36.70;;;;;;4960864;29;20054;-61
2022/07/20 09:26:18;;;;;;;4.90;4.10;;;51.40;36.90;;;;;;4964202;28;20028;-53
2022/07/20 09:28:48;;;;;;;8.00;4.18;;;50.60;35.70;;;;;;4960666;28;20065;-49
2022/07/20 09:31:14;;;;;;;4.15;3.65;;;49.60;36.40;;;;;;4957893;28;20110;-49
2022/07/20 09:33:57;;;;;;;7.95;4.00;;;49.00;37.20;;;;;;4959050;28;20053;-49
2022/07/20 09:36:26;;;;;;;6.10;3.30;;;49.00;37.10;;;;;;4958771;28;20101;-52
2022/07/20 09:38:52;;;;;;;4.97;3.50;;;49.80;37.50;;;;;;4960355;28;20148;-50
2022/07/20 09:41:23;;;;;;;4.70;3.60;;;48.80;37.20;;;;;;4959631;28;20102;-50
2022/07/20 09:43:49;;;;;;;6.97;3.55;;;49.20;38.50;;;;;;4958618;28;20031;-53
2022/07/20 09:46:17;;;;;;;5.47;3.85;;;50.50;38.90;;;;;;4975010;28;20027;-51
2022/07/20 09:48:51;;;;;;;6.57;3.72;;;50.80;37.30;;;;;;4960192;28;20063;-48
2022/07/20 09:51:21;;;;;;;4.22;3.80;;;51.80;35.40;;;;;;4960505;28;20130;-51
2022/07/20 09:53:48;;;;;;;5.70;4.20;;;52.50;35.40;;;;;;4960538;28;20122;-50
2022/07/20 09:56:19;;;;;;;5.95;3.72;;;52.90;35.00;;;;;;4962141;28;20070;-50
2022/07/20 09:58:47;;;;;;;6.28;4.10;;;52.50;35.00;;;;;;4958917;28;20020;-45
2022/07/20 10:01:19;;;;;;;5.60;3.90;;;51.20;36.00;;;;;;4955503;28;20023;-48
2022/07/20 10:03:50;;;;;;;6.35;3.70;;;50.10;35.20;;;;;;4954483;28;20043;-46
2022/07/20 10:06:17;;;;;;;6.10;3.85;;;49.30;35.80;;;;;;4955173;28;20375;-46
2022/07/20 10:08:43;;;;;;;4.70;3.25;;;48.70;36.60;;;;;;4956059;29;20478;-46
2022/07/20 10:11:09;;;;;;;8.13;4.00;;;48.10;36.80;;;;;;4954563;28;20126;-46
2022/07/20 10:13:35;;;;;;;4.82;3.42;;;47.40;37.30;;;;;;4955883;28;20031;-46
2022/07/20 10:16:12;;;;;;;6.45;3.53;;;46.90;37.70;;;;;;4955328;29;20027;-46
2022/07/20 10:18:38;;;;;;;3.97;3.28;;;47.50;37.40;;;;;;4955438;28;20023;-46
2022/07/20 10:21:31;;;;;;;11.45;3.72;;;47.60;37.60;;;;;;4955442;28;20030;-48
2022/07/20 10:24:29;;;;;;;5.45;3.85;;;47.10;37.90;;;;;;4954092;29;20046;-47
2022/07/20 10:27:18;;;;;;;6.72;3.65;;;46.80;37.50;;;;;;4954057;29;20606;-47
2022/07/20 10:29:45;;;;;;;;;;;46.30;38.30;;;;;;4956161;28;20447;-50
2022/07/20 10:32:16;;;;;;;5.32;3.75;;;46.30;38.40;;;;;;4970260;28;19907;-51
2022/07/20 10:34:50;;;;;;;6.10;3.40;;;46.20;38.90;;;;;;4955120;29;20019;-47
2022/07/20 10:37:38;;;;;;;5.95;3.35;;;46.10;38.50;;;;;;4955208;29;20027;-53
2022/07/20 10:40:14;;;;;;;3.95;3.40;;;45.70;39.10;;;;;;4954626;28;20026;-52
2022/07/20 10:43:09;;;;;;;5.55;3.40;;;45.70;38.90;;;;;;4955412;29;20031;-49
2022/07/20 10:45:35;;;;;;;6.57;3.63;;;45.30;39.20;;;;;;4955375;28;20027;-47
2022/07/20 10:48:12;;;;;;;10.07;3.35;;;45.10;38.90;;;;;;4969963;28;20028;-50
2022/07/20 10:50:40;;;;;;;7.80;3.47;;;44.70;39.50;;;;;;4956941;28;20033;-46
2022/07/20 10:53:15;;;;;;;5.43;3.63;;;44.40;39.90;;;;;;4959051;28;20078;-46
2022/07/20 10:55:50;;;;;;;6.05;3.50;;;44.00;40.00;;;;;;4957696;29;20045;-46
2022/07/20 10:58:23;;;;;;;8.95;3.70;;;43.70;40.40;;;;;;4959285;29;20074;-47
2022/07/20 11:00:56;;;;;;;5.15;3.55;;;43.50;40.20;;;;;;4958080;28;20027;-46
2022/07/20 11:03:42;;;;;;;6.18;3.60;;;42.90;40.80;;;;;;4958999;29;20492;-46
2022/07/20 11:06:18;;;;;;;4.57;3.47;;;42.60;41.50;;;;;;4958009;28;20363;-47
2022/07/20 11:08:58;;;;;;;7.93;3.55;;;42.20;42.00;;;;;;4958276;28;20058;-47
2022/07/20 11:11:33;;;;;;;8.02;3.67;;;41.90;42.10;;;;;;4958414;28;20027;-47
2022/07/20 11:14:01;;;;;;;6.60;3.80;;;41.60;41.50;;;;;;4957427;28;20030;-48
2022/07/20 11:16:27;;;;;;;7.80;3.75;;;41.10;42.80;;;;;;4958491;28;20438;-53
2022/07/20 11:18:54;;;;;;;6.53;4.13;;;40.80;42.10;;;;;;4958040;28;20023;-48
2022/07/20 11:21:31;;;;;;;5.95;3.53;;;40.30;43.20;;;;;;4973547;28;20024;-47
2022/07/20 11:23:57;;;;;;;7.38;3.95;;;40.00;43.10;;;;;;4957551;28;20042;-47
2022/07/20 11:26:23;;;;;;;5.80;3.20;;;39.90;43.30;;;;;;4958318;28;20059;-47
2022/07/20 11:28:55;;;;;;;4.68;3.10;;;39.80;43.10;;;;;;4958265;28;20062;-47
2022/07/20 11:31:27;;;;;;;6.07;3.40;;;39.80;43.40;;;;;;4958217;28;20553;-48
2022/07/20 11:33:55;;;;;;;9.02;3.63;;;39.80;43.10;;;;;;4956874;28;20054;-47
2022/07/20 11:36:24;;;;;;;4.72;3.67;;;39.70;43.10;;;;;;4956918;29;20160;-47
2022/07/20 11:38:52;;;;;;;7.07;3.40;;;39.70;42.70;;;;;;4957054;28;20019;-47
2022/07/20 11:41:22;;;;;;;10.68;3.80;;;39.30;43.20;;;;;;4958753;28;20035;-48
2022/07/20 11:43:50;;;;;;;5.68;3.33;;;39.00;43.10;;;;;;4956731;28;20031;-49
2022/07/20 11:46:24;;;;;;;4.97;3.08;;;38.90;44.30;;;;;;4958189;28;20034;-49
2022/07/20 11:48:56;;;;;;;7.47;3.17;;;38.90;44.40;;;;;;4972861;28;20110;-47
2022/07/20 11:51:22;;;;;;;6.65;3.40;;;38.90;44.70;;;;;;4972744;28;20031;-47
2022/07/20 11:53:48;;;;;;;8.15;3.42;;;38.90;45.10;;;;;;4957775;28;20034;-48
2022/07/20 11:56:15;;;;;;;5.57;3.60;;;38.90;44.90;;;;;;4957737;29;20023;-50
2022/07/20 11:58:43;;;;;;;7.00;3.92;;;38.60;44.70;;;;;;4956855;28;20031;-48
2022/07/20 12:01:13;;;;;;;6.63;4.03;;;38.60;45.20;;;;;;4972520;28;20024;-47
2022/07/20 12:03:41;;;;;;;4.95;3.75;;;38.40;45.00;;;;;;4956211;28;20030;-50
2022/07/20 12:06:09;;;;;;;8.05;3.70;;;38.40;45.80;;;;;;4973414;28;20035;-51
2022/07/20 12:08:35;;;;;;;11.00;3.92;;;38.40;44.80;;;;;;4956296;29;20027;-48
2022/07/20 12:11:01;;;;;;;5.75;3.78;;;38.30;44.90;;;;;;4957441;28;20038;-48
2022/07/20 12:13:27;;;;;;;9.40;3.88;;;38.30;44.80;;;;;;4957430;28;20032;-48
2022/07/20 12:15:57;;;;;;;5.60;3.50;;;38.20;44.60;;;;;;4957440;28;20023;-51
2022/07/20 12:18:36;;;;;;;6.53;3.63;;;38.20;45.00;;;;;;4957390;29;20537;-47
2022/07/20 12:21:04;;;;;;;7.55;4.13;;;38.10;45.00;;;;;;4957585;28;20015;-47
2022/07/20 12:23:31;;;;;;;8.13;4.30;;;38.00;44.30;;;;;;4957400;28;20035;-47
2022/07/20 12:25:56;;;;;;;5.65;3.80;;;37.80;44.40;;;;;;4972558;28;20023;-50
2022/07/20 12:28:33;;;;;;;10.95;4.00;;;37.40;45.20;;;;;;4957441;29;20106;-52
2022/07/20 12:31:19;;;;;;;4.00;3.60;;;37.20;44.70;;;;;;4972236;28;20031;-48
2022/07/20 12:34:03;;;;;;;6.13;3.95;;;37.30;46.10;;;;;;4956963;28;20057;-48
2022/07/20 12:36:40;;;;;;;5.93;3.80;;;37.30;45.30;;;;;;4957037;29;20401;-48
2022/07/20 12:39:12;;;;;;;4.30;3.72;;;37.30;44.90;;;;;;4955823;28;20119;-49
2022/07/20 12:41:38;;;;;;;11.00;4.55;;;37.30;46.20;;;;;;4956915;28;20031;-52
2022/07/20 12:44:28;;;;;;;11.35;3.72;;;37.30;45.80;;;;;;4956258;28;20027;-48
2022/07/20 12:46:56;;;;;;;6.05;4.18;;;37.20;45.20;;;;;;4971795;28;20375;-49